Time;durP1;ratioP1;P1;durP2;ratioP2;P2;SDS_P1;SDS_P2;PMS_P1;PMS_P2;Temp;Humidity;BMP_temperature;BMP_pressure;BME280_temperature;BME280_humidity;BME280_pressure;Samples;Min_cycle;Max_cycle;Signal;HPM_P1;HPM_P2
2022/04/11 00:00:02;;;;;;;158.50;58.72;;;;;;;;;;5013784;28;20181;-63
2022/04/11 00:02:28;;;;;;;153.15;56.60;;;;;;;;;;5007968;28;20182;-63
2022/04/11 00:04:54;;;;;;;153.80;57.97;;;;;;;;;;5013747;28;20181;-63
2022/04/11 00:07:20;;;;;;;152.35;56.85;;;;;;;;;;5012970;28;20587;-63
2022/04/11 00:09:46;;;;;;;149.27;55.20;;;;;;;;;;5013799;28;20701;-62
2022/04/11 00:12:12;;;;;;;153.37;57.10;;;;;;;;;;5013517;28;20781;-63
2022/04/11 00:14:38;;;;;;;153.40;56.57;;;;;;;;;;5013547;28;20413;-63
2022/04/11 00:17:04;;;;;;;157.20;57.55;;;;;;;;;;5013481;28;20430;-62
2022/04/11 00:19:30;;;;;;;152.57;55.17;;;;;;;;;;5013548;28;20553;-62
2022/04/11 00:21:56;;;;;;;154.50;55.93;;;;;;;;;;5013173;28;20177;-63
2022/04/11 00:24:22;;;;;;;151.10;54.22;;;;;;;;;;5013451;28;20475;-63
2022/04/11 00:26:48;;;;;;;157.60;55.97;;;;;;;;;;5013312;28;20702;-63
2022/04/11 00:29:14;;;;;;;154.33;56.60;;;;;;;;;;5013266;28;20497;-63
2022/04/11 00:31:40;;;;;;;150.57;56.50;;;;;;;;;;5012038;28;20535;-63
2022/04/11 00:34:06;;;;;;;149.50;56.57;;;;;;;;;;5012821;28;20406;-63
2022/04/11 00:36:31;;;;;;;145.43;53.50;;;;;;;;;;5013105;28;20454;-62
2022/04/11 00:38:57;;;;;;;158.20;59.60;;;;;;;;;;5013286;28;20171;-61
2022/04/11 00:41:23;;;;;;;153.23;56.80;;;;;;;;;;5012877;28;20449;-62
2022/04/11 00:43:49;;;;;;;152.90;56.00;;;;;;;;;;5013049;28;20424;-61
2022/04/11 00:46:15;;;;;;;158.07;57.80;;;;;;;;;;5013021;28;20473;-61
2022/04/11 00:48:41;;;;;;;151.07;56.17;;;;;;;;;;5013030;28;20920;-61
2022/04/11 00:51:10;;;;;;;153.30;55.83;;;;;;;;;;5012556;28;20499;-61
2022/04/11 00:53:38;;;;;;;158.82;56.60;;;;;;;;;;5012761;28;20169;-61
2022/04/11 00:56:05;;;;;;;160.25;56.95;;;;;;;;;;5012778;28;20316;-61
2022/04/11 00:58:31;;;;;;;158.05;55.88;;;;;;;;;;5035889;22;20229;-60
2022/04/11 01:00:57;;;;;;;160.13;55.70;;;;;;;;;;5011972;28;20178;-58
2022/04/11 01:03:23;;;;;;;145.65;56.08;;;;;;;;;;5012300;28;20671;-60
2022/04/11 01:05:49;;;;;;;135.40;52.37;;;;;;;;;;5012840;28;20292;-60
2022/04/11 01:08:15;;;;;;;132.73;52.77;;;;;;;;;;5012605;28;21142;-60
2022/04/11 01:10:41;;;;;;;152.18;55.10;;;;;;;;;;5012343;28;20428;-60
2022/04/11 01:13:07;;;;;;;155.15;56.72;;;;;;;;;;5011934;28;20182;-60
2022/04/11 01:15:33;;;;;;;153.67;55.97;;;;;;;;;;5012448;28;20633;-60
2022/04/11 01:18:00;;;;;;;160.10;58.43;;;;;;;;;;5012334;28;20828;-60
2022/04/11 01:20:26;;;;;;;164.43;59.88;;;;;;;;;;5012132;28;20408;-60
2022/04/11 01:22:52;;;;;;;154.17;54.27;;;;;;;;;;5012424;28;20258;-58
2022/04/11 01:25:18;;;;;;;152.40;54.10;;;;;;;;;;5012299;28;20471;-60
2022/04/11 01:27:44;;;;;;;160.15;57.67;;;;;;;;;;5012178;28;20436;-60
2022/04/11 01:30:12;;;;;;;159.57;56.80;;;;;;;;;;5011833;28;20249;-59
2022/04/11 01:32:38;;;;;;;156.50;53.88;;;;;;;;;;5012484;28;20401;-58
2022/04/11 01:35:05;;;;;;;166.80;57.30;;;;;;;;;;5012010;28;20182;-60
2022/04/11 01:37:31;;;;;;;173.75;57.15;;;;;;;;;;5011985;28;20280;-60
2022/04/11 01:39:57;;;;;;;175.40;58.95;;;;;;;;;;5012036;28;20191;-60
2022/04/11 01:42:23;;;;;;;164.63;56.60;;;;;;;;;;5011863;28;20181;-60
2022/04/11 01:44:49;;;;;;;161.00;54.40;;;;;;;;;;5012029;28;20404;-58
2022/04/11 01:47:15;;;;;;;169.18;55.42;;;;;;;;;;5011637;28;20488;-60
2022/04/11 01:49:41;;;;;;;164.00;56.07;;;;;;;;;;5011907;28;20361;-58
2022/04/11 01:52:08;;;;;;;166.65;57.75;;;;;;;;;;5011674;28;20439;-60
2022/04/11 01:54:33;;;;;;;141.35;54.42;;;;;;;;;;5011928;28;20669;-59
2022/04/11 01:56:59;;;;;;;135.20;51.10;;;;;;;;;;5011769;28;20313;-58
2022/04/11 01:59:25;;;;;;;146.20;55.60;;;;;;;;;;5011825;28;20419;-56
2022/04/11 02:01:51;;;;;;;149.37;55.90;;;;;;;;;;5011571;28;20409;-60
2022/04/11 02:04:17;;;;;;;142.80;55.87;;;;;;;;;;5011748;28;20416;-59
2022/04/11 02:06:43;;;;;;;135.33;51.60;;;;;;;;;;5011633;28;20483;-59
2022/04/11 02:09:09;;;;;;;143.27;56.60;;;;;;;;;;5011588;28;20777;-58
2022/04/11 02:11:35;;;;;;;145.60;54.97;;;;;;;;;;5011344;28;20444;-58
2022/04/11 02:14:01;;;;;;;140.67;55.10;;;;;;;;;;5011558;28;20404;-60
2022/04/11 02:16:27;;;;;;;168.10;57.70;;;;;;;;;;5011657;28;20495;-60
2022/04/11 02:18:53;;;;;;;160.55;56.90;;;;;;;;;;5011471;28;20938;-57
2022/04/11 02:21:19;;;;;;;170.30;58.27;;;;;;;;;;5011504;28;20173;-59
2022/04/11 02:23:46;;;;;;;160.43;58.27;;;;;;;;;;5011517;28;20915;-57
2022/04/11 02:26:12;;;;;;;159.57;55.40;;;;;;;;;;5011477;28;20448;-59
2022/04/11 02:28:38;;;;;;;158.00;54.77;;;;;;;;;;5011430;28;20608;-60
2022/04/11 02:31:04;;;;;;;163.73;56.77;;;;;;;;;;5014711;28;20483;-59
2022/04/11 02:33:30;;;;;;;153.43;54.83;;;;;;;;;;5015481;28;20439;-60
2022/04/11 02:35:55;;;;;;;152.20;55.33;;;;;;;;;;5015463;28;20413;-59
2022/04/11 02:38:22;;;;;;;154.90;55.17;;;;;;;;;;5015360;28;20251;-60
2022/04/11 02:40:48;;;;;;;154.90;55.35;;;;;;;;;;5015159;28;20474;-58
2022/04/11 02:43:14;;;;;;;146.35;53.25;;;;;;;;;;5015244;28;20630;-60
2022/04/11 02:45:40;;;;;;;148.48;52.55;;;;;;;;;;5015196;28;20209;-56
2022/04/11 02:48:06;;;;;;;157.37;59.17;;;;;;;;;;5015069;28;20251;-59
2022/04/11 02:50:32;;;;;;;157.17;57.00;;;;;;;;;;5014942;28;20483;-60
2022/04/11 02:52:58;;;;;;;158.40;56.73;;;;;;;;;;5015240;28;20409;-58
2022/04/11 02:55:24;;;;;;;155.43;55.90;;;;;;;;;;5015153;28;20440;-60
2022/04/11 02:57:50;;;;;;;158.45;56.47;;;;;;;;;;5014836;28;20244;-60
2022/04/11 03:00:17;;;;;;;156.68;58.13;;;;;;;;;;5014833;28;20209;-60
2022/04/11 03:02:44;;;;;;;148.38;53.67;;;;;;;;;;5014802;28;20197;-60
2022/04/11 03:05:10;;;;;;;159.68;56.92;;;;;;;;;;5014920;28;20180;-60
2022/04/11 03:07:36;;;;;;;160.40;56.67;;;;;;;;;;5014812;28;20197;-60
2022/04/11 03:10:02;;;;;;;143.55;53.60;;;;;;;;;;5014811;28;20660;-60
2022/04/11 03:12:28;;;;;;;138.18;53.88;;;;;;;;;;5014582;28;20170;-60
2022/04/11 03:14:54;;;;;;;135.63;53.47;;;;;;;;;;5014854;28;20220;-60
2022/04/11 03:17:20;;;;;;;143.65;55.33;;;;;;;;;;5014664;28;20428;-59
2022/04/11 03:19:46;;;;;;;134.47;52.97;;;;;;;;;;5014670;28;20174;-59
2022/04/11 03:22:12;;;;;;;134.77;52.17;;;;;;;;;;5014399;28;20779;-59
2022/04/11 03:24:39;;;;;;;136.82;53.55;;;;;;;;;;5014802;28;20178;-58
2022/04/11 03:27:04;;;;;;;140.10;53.90;;;;;;;;;;5014199;28;20217;-60
2022/04/11 03:29:31;;;;;;;135.87;53.70;;;;;;;;;;5014725;28;20169;-59
2022/04/11 03:31:57;;;;;;;140.35;54.53;;;;;;;;;;5014192;28;20407;-60
2022/04/11 03:34:23;;;;;;;131.73;53.10;;;;;;;;;;5014483;28;20256;-59
2022/04/11 03:36:49;;;;;;;130.75;50.92;;;;;;;;;;5014282;28;20178;-58
2022/04/11 03:39:15;;;;;;;136.68;53.97;;;;;;;;;;5014336;28;20672;-58
2022/04/11 03:41:43;;;;;;;138.30;53.60;;;;;;;;;;5012670;28;20182;-58
2022/04/11 03:44:10;;;;;;;137.95;54.08;;;;;;;;;;5014241;28;20257;-58
2022/04/11 03:46:36;;;;;;;138.18;53.40;;;;;;;;;;5014077;28;20201;-60
2022/04/11 03:49:02;;;;;;;141.70;54.58;;;;;;;;;;5014001;28;20200;-60
2022/04/11 03:51:28;;;;;;;140.45;55.72;;;;;;;;;;5013898;28;20625;-60
2022/04/11 03:53:55;;;;;;;141.77;55.30;;;;;;;;;;5013926;28;20180;-60
2022/04/11 03:56:21;;;;;;;138.15;54.50;;;;;;;;;;5014125;28;20486;-59
2022/04/11 03:58:47;;;;;;;142.50;53.95;;;;;;;;;;5013822;28;20623;-60
2022/04/11 04:01:13;;;;;;;128.20;54.53;;;;;;;;;;5013659;28;20192;-58
2022/04/11 04:03:40;;;;;;;127.90;53.22;;;;;;;;;;5013767;28;20416;-59
2022/04/11 04:06:06;;;;;;;129.32;51.13;;;;;;;;;;5013644;28;20616;-60
2022/04/11 04:08:32;;;;;;;132.38;54.17;;;;;;;;;;5013491;28;20596;-60
2022/04/11 04:10:57;;;;;;;122.00;50.07;;;;;;;;;;5013390;28;20253;-60
2022/04/11 04:13:24;;;;;;;135.73;54.73;;;;;;;;;;5013699;28;20412;-61
2022/04/11 04:15:50;;;;;;;138.77;54.03;;;;;;;;;;5013676;28;20807;-60
2022/04/11 04:18:16;;;;;;;133.23;52.13;;;;;;;;;;5013456;28;20240;-61
2022/04/11 04:20:42;;;;;;;128.88;50.00;;;;;;;;;;5013266;28;20173;-60
2022/04/11 04:23:08;;;;;;;132.48;52.15;;;;;;;;;;5013354;28;20174;-61
2022/04/11 04:25:34;;;;;;;159.47;56.43;;;;;;;;;;5013327;28;20252;-61
2022/04/11 04:28:01;;;;;;;134.85;53.10;;;;;;;;;;5013235;28;20482;-60
2022/04/11 04:30:28;;;;;;;133.65;53.67;;;;;;;;;;5012917;28;20633;-61
2022/04/11 04:32:54;;;;;;;136.80;54.60;;;;;;;;;;5013013;28;20182;-60
2022/04/11 04:35:20;;;;;;;137.80;53.95;;;;;;;;;;5013431;28;20592;-60
2022/04/11 04:37:46;;;;;;;130.47;52.80;;;;;;;;;;5013700;28;20189;-57
2022/04/11 04:40:12;;;;;;;142.87;57.90;;;;;;;;;;5012902;28;20422;-58
2022/04/11 04:42:39;;;;;;;136.38;52.88;;;;;;;;;;5013150;28;20416;-58
2022/04/11 04:45:06;;;;;;;140.23;54.55;;;;;;;;;;5012962;28;20178;-57
2022/04/11 04:47:32;;;;;;;141.75;55.00;;;;;;;;;;5012863;28;20203;-57
2022/04/11 04:49:57;;;;;;;147.20;54.22;;;;;;;;;;5013209;28;20253;-56
2022/04/11 04:52:23;;;;;;;148.30;53.37;;;;;;;;;;5012447;28;20231;-58
2022/04/11 04:54:49;;;;;;;154.20;54.27;;;;;;;;;;5012923;28;20897;-58
2022/04/11 04:57:15;;;;;;;153.53;55.03;;;;;;;;;;5012696;28;21024;-59
2022/04/11 04:59:41;;;;;;;151.10;53.63;;;;;;;;;;5012791;28;20412;-57
2022/04/11 05:02:07;;;;;;;151.07;54.00;;;;;;;;;;5012356;28;20405;-59
2022/04/11 05:04:34;;;;;;;148.00;53.63;;;;;;;;;;5012947;28;20409;-59
2022/04/11 05:07:00;;;;;;;147.43;53.95;;;;;;;;;;5012630;28;20456;-58
2022/04/11 05:09:26;;;;;;;162.00;65.43;;;;;;;;;;5011772;28;20174;-54
2022/04/11 05:11:52;;;;;;;155.80;55.20;;;;;;;;;;5012296;28;20174;-58
2022/04/11 05:14:18;;;;;;;155.38;55.70;;;;;;;;;;5012493;28;20411;-57
2022/04/11 05:16:44;;;;;;;152.80;54.70;;;;;;;;;;5012176;28;20178;-58
2022/04/11 05:19:09;;;;;;;153.17;54.37;;;;;;;;;;5012369;28;20500;-59
2022/04/11 05:21:35;;;;;;;155.30;55.90;;;;;;;;;;5012139;28;20409;-58
2022/04/11 05:24:01;;;;;;;153.60;53.23;;;;;;;;;;5012373;28;20750;-58
2022/04/11 05:26:27;;;;;;;162.68;56.05;;;;;;;;;;5012225;28;20456;-58
2022/04/11 05:28:53;;;;;;;160.50;55.37;;;;;;;;;;5012224;28;20196;-59
2022/04/11 05:31:19;;;;;;;168.40;57.55;;;;;;;;;;5011855;28;20403;-59
2022/04/11 05:33:46;;;;;;;165.02;56.33;;;;;;;;;;5012199;28;20208;-58
2022/04/11 05:36:12;;;;;;;155.27;53.90;;;;;;;;;;5012088;28;20178;-57
2022/04/11 05:38:38;;;;;;;155.43;54.70;;;;;;;;;;5012150;28;20201;-59
2022/04/11 05:41:04;;;;;;;151.55;55.28;;;;;;;;;;5011879;28;20188;-59
2022/04/11 05:43:30;;;;;;;152.57;54.07;;;;;;;;;;5011948;28;20180;-59
2022/04/11 05:45:56;;;;;;;157.90;55.77;;;;;;;;;;5011777;28;20499;-59
2022/04/11 05:48:22;;;;;;;154.80;54.50;;;;;;;;;;5012060;28;20459;-58
2022/04/11 05:50:48;;;;;;;163.37;56.20;;;;;;;;;;5011701;28;20948;-59
2022/04/11 05:53:14;;;;;;;157.90;55.17;;;;;;;;;;5011836;28;20447;-59
2022/04/11 05:55:40;;;;;;;164.90;54.78;;;;;;;;;;5011782;28;20409;-59
2022/04/11 05:58:06;;;;;;;178.30;59.60;;;;;;;;;;5011791;28;20646;-59
2022/04/11 06:00:31;;;;;;;179.50;57.90;;;;;;;;;;5011302;28;20405;-58
2022/04/11 06:02:57;;;;;;;178.70;58.37;;;;;;;;;;5011783;28;20824;-60
2022/04/11 06:05:23;;;;;;;183.05;58.42;;;;;;;;;;5010903;28;20971;-59
2022/04/11 06:07:49;;;;;;;188.90;60.90;;;;;;;;;;5011036;28;20197;-59
2022/04/11 06:10:15;;;;;;;182.73;62.20;;;;;;;;;;5010995;28;20417;-58
2022/04/11 06:12:41;;;;;;;178.43;59.27;;;;;;;;;;5011599;28;20412;-60
2022/04/11 06:15:07;;;;;;;171.27;57.50;;;;;;;;;;5011370;28;20450;-58
2022/04/11 06:17:33;;;;;;;166.77;57.35;;;;;;;;;;5011483;28;20784;-60
2022/04/11 06:20:00;;;;;;;167.48;57.50;;;;;;;;;;5011925;28;20173;-60
2022/04/11 06:22:26;;;;;;;146.20;53.45;;;;;;;;;;5011266;28;20303;-56
2022/04/11 06:24:59;;;;;;;167.75;56.40;;;;;;;;;;5011531;28;20184;-60
2022/04/11 06:27:25;;;;;;;169.98;59.83;;;;;;;;;;5011186;28;20206;-59
2022/04/11 06:29:56;;;;;;;167.97;57.30;;;;;;;;;;5011143;28;20192;-58
2022/04/11 06:32:28;;;;;;;170.93;58.58;;;;;;;;;;5011322;28;20416;-58
2022/04/11 06:34:54;;;;;;;171.15;57.65;;;;;;;;;;5011348;28;20170;-59
2022/04/11 06:37:21;;;;;;;169.90;57.33;;;;;;;;;;5011387;28;20699;-56
2022/04/11 06:39:47;;;;;;;169.43;58.83;;;;;;;;;;5011158;28;20411;-58
2022/04/11 06:42:13;;;;;;;166.63;59.75;;;;;;;;;;5010393;28;20193;-58
2022/04/11 06:44:39;;;;;;;174.30;58.78;;;;;;;;;;5011771;28;20212;-59
2022/04/11 06:47:06;;;;;;;180.23;60.63;;;;;;;;;;5010807;28;20224;-59
2022/04/11 06:49:32;;;;;;;180.77;62.33;;;;;;;;;;5011152;28;20578;-58
2022/04/11 06:51:58;;;;;;;175.57;60.33;;;;;;;;;;5011055;28;20205;-59
2022/04/11 06:54:24;;;;;;;176.98;61.33;;;;;;;;;;5011124;28;20425;-58
2022/04/11 06:56:49;;;;;;;176.00;66.97;;;;;;;;;;5008935;28;20184;-59
2022/04/11 06:59:15;;;;;;;179.77;62.10;;;;;;;;;;5009740;28;20490;-59
2022/04/11 07:01:42;;;;;;;177.80;63.57;;;;;;;;;;5010093;28;20421;-61
2022/04/11 07:04:08;;;;;;;176.75;65.60;;;;;;;;;;5009315;28;20821;-59
2022/04/11 07:06:34;;;;;;;185.82;69.05;;;;;;;;;;4991760;28;20295;-59
2022/04/11 07:09:00;;;;;;;181.50;66.82;;;;;;;;;;5008672;28;20262;-60
2022/04/11 07:11:26;;;;;;;189.43;73.03;;;;;;;;;;5008192;28;20288;-56
2022/04/11 07:13:52;;;;;;;190.35;72.53;;;;;;;;;;5008979;28;20177;-60
2022/04/11 07:16:18;;;;;;;190.87;67.37;;;;;;;;;;5044608;22;20657;-62
2022/04/11 07:18:44;;;;;;;188.68;69.50;;;;;;;;;;5033169;28;20414;-62
2022/04/11 07:21:10;;;;;;;185.57;69.67;;;;;;;;;;5033692;28;20535;-61
2022/04/11 07:23:36;;;;;;;198.20;73.10;;;;;;;;;;5033986;28;20894;-61
2022/04/11 07:26:02;;;;;;;193.23;74.37;;;;;;;;;;5034109;28;20892;-62
2022/04/11 07:28:28;;;;;;;196.97;74.47;;;;;;;;;;5034041;28;20452;-62
2022/04/11 07:30:54;;;;;;;197.57;76.87;;;;;;;;;;5033874;28;20413;-62
2022/04/11 07:33:20;;;;;;;200.47;77.63;;;;;;;;;;5020319;28;20853;-62
2022/04/11 07:35:46;;;;;;;196.77;78.97;;;;;;;;;;5012096;28;20958;-62
2022/04/11 07:38:12;;;;;;;204.55;79.03;;;;;;;;;;5013960;28;20416;-62
2022/04/11 07:40:38;;;;;;;202.63;81.73;;;;;;;;;;5013537;28;20185;-62
2022/04/11 07:43:04;;;;;;;210.48;82.97;;;;;;;;;;5012402;28;20794;-61
2022/04/11 07:45:30;;;;;;;216.07;84.70;;;;;;;;;;5013942;28;20258;-62
2022/04/11 07:47:56;;;;;;;213.97;79.87;;;;;;;;;;5013547;28;20793;-62
2022/04/11 07:50:22;;;;;;;227.37;92.50;;;;;;;;;;5013525;28;20420;-62
2022/04/11 07:52:48;;;;;;;232.57;92.57;;;;;;;;;;5013760;28;20420;-62
2022/04/11 07:55:15;;;;;;;238.85;101.03;;;;;;;;;;5013389;28;20170;-62
2022/04/11 07:57:41;;;;;;;240.60;104.05;;;;;;;;;;5013835;28;20172;-62
2022/04/11 08:00:08;;;;;;;239.20;99.65;;;;;;;;;;5013316;28;20256;-62
2022/04/11 08:02:34;;;;;;;231.30;104.47;;;;;;;;;;5012175;28;20172;-62
2022/04/11 08:05:03;;;;;;;202.95;106.50;;;;;;;;;;5008699;28;20170;-63
2022/04/11 08:07:30;;;;;;;208.75;112.88;;;;;;;;;;5012659;28;20803;-62
2022/04/11 08:09:56;;;;;;;213.80;117.55;;;;;;;;;;5012529;28;20614;-63
2022/04/11 08:12:22;;;;;;;211.77;118.32;;;;;;;;;;5012792;28;20216;-61
2022/04/11 08:14:48;;;;;;;230.07;121.23;;;;;;;;;;5013211;28;20201;-63
2022/04/11 08:17:14;;;;;;;242.03;121.33;;;;;;;;;;5013395;28;20497;-62
2022/04/11 08:19:40;;;;;;;255.75;133.13;;;;;;;;;;5013461;28;20467;-62
2022/04/11 08:22:06;;;;;;;261.07;144.50;;;;;;;;;;5013252;28;20606;-63
2022/04/11 08:24:32;;;;;;;248.68;169.60;;;;;;;;;;5012109;28;20423;-63
2022/04/11 08:26:58;;;;;;;282.15;171.50;;;;;;;;;;5012224;28;20206;-63
2022/04/11 08:29:25;;;;;;;280.42;181.10;;;;;;;;;;5012962;28;20174;-62
2022/04/11 08:31:51;;;;;;;292.65;193.55;;;;;;;;;;5012925;28;20201;-62
2022/04/11 08:34:17;;;;;;;296.52;206.10;;;;;;;;;;5012668;28;20542;-63
2022/04/11 08:36:44;;;;;;;310.80;253.33;;;;;;;;;;5012358;28;20201;-61
2022/04/11 08:39:10;;;;;;;340.70;303.23;;;;;;;;;;5012387;28;20479;-62
2022/04/11 08:41:36;;;;;;;362.75;324.75;;;;;;;;;;5012402;28;20185;-61
2022/04/11 08:44:04;;;;;;;359.90;321.65;;;;;;;;;;5012109;28;20241;-61
2022/04/11 08:46:30;;;;;;;404.83;363.98;;;;;;;;;;5012158;28;20221;-62
2022/04/11 08:48:56;;;;;;;424.77;385.90;;;;;;;;;;5012819;28;20178;-62
2022/04/11 08:51:22;;;;;;;425.77;385.20;;;;;;;;;;5012809;28;20479;-62
2022/04/11 08:53:48;;;;;;;454.07;411.73;;;;;;;;;;5012612;28;20484;-63
2022/04/11 08:56:14;;;;;;;505.47;460.07;;;;;;;;;;5012205;28;20420;-62
2022/04/11 08:58:40;;;;;;;555.47;511.77;;;;;;;;;;5012657;28;20458;-62
2022/04/11 09:01:06;;;;;;;645.80;598.70;;;;;;;;;;5012478;28;20424;-63
2022/04/11 09:03:32;;;;;;;703.17;653.10;;;;;;;;;;5012444;28;20414;-62
2022/04/11 09:06:09;;;;;;;748.57;697.47;;;;;;;;;;5011545;28;20478;-61
2022/04/11 09:08:41;;;;;;;769.53;718.63;;;;;;;;;;5009123;28;20514;-63
2022/04/11 09:11:08;;;;;;;808.27;755.53;;;;;;;;;;5012739;28;20414;-62
2022/04/11 09:13:47;;;;;;;860.70;805.70;;;;;;;;;;5012505;28;20404;-63
2022/04/11 09:16:13;;;;;;;853.83;800.07;;;;;;;;;;5010729;28;20457;-62
2022/04/11 09:18:49;;;;;;;827.30;774.10;;;;;;;;;;5012424;28;20428;-62
2022/04/11 09:21:16;;;;;;;826.00;772.93;;;;;;;;;;5012488;28;20760;-62
2022/04/11 09:23:42;;;;;;;827.77;774.83;;;;;;;;;;5012490;28;20428;-62
2022/04/11 09:26:21;;;;;;;836.90;785.17;;;;;;;;;;5012048;28;20463;-63
2022/04/11 09:28:59;;;;;;;863.57;810.13;;;;;;;;;;5012169;28;20861;-62
2022/04/11 09:31:26;;;;;;;815.47;765.40;;;;;;;;;;5011925;28;20915;-61
2022/04/11 09:33:52;;;;;;;774.37;726.50;;;;;;;;;;5012244;28;20417;-61
2022/04/11 09:36:20;;;;;;;748.57;700.07;;;;;;;;;;5011927;28;20428;-62
2022/04/11 09:38:56;;;;;;;792.80;742.33;;;;;;;;;;5009240;28;20436;-62
2022/04/11 09:41:27;;;;;;;790.37;737.03;;;;;;;;;;5007403;28;20420;-62
2022/04/11 09:43:53;;;;;;;764.33;714.13;;;;;;;;;;5006005;28;20443;-63
2022/04/11 09:46:19;;;;;;;782.43;732.30;;;;;;;;;;5011748;28;20460;-61
2022/04/11 09:48:45;;;;;;;780.20;729.83;;;;;;;;;;5012021;28;20415;-62
2022/04/11 09:51:13;;;;;;;737.30;688.57;;;;;;;;;;5011131;28;20443;-62
2022/04/11 09:53:41;;;;;;;701.33;654.23;;;;;;;;;;5009468;28;20433;-62
2022/04/11 09:56:08;;;;;;;662.63;617.50;;;;;;;;;;5011397;28;20452;-61
2022/04/11 09:58:35;;;;;;;656.97;610.77;;;;;;;;;;5011533;28;20781;-61
2022/04/11 10:01:02;;;;;;;669.00;622.73;;;;;;;;;;5011439;28;20416;-61
2022/04/11 10:03:29;;;;;;;670.90;624.50;;;;;;;;;;5011626;28;20409;-61
2022/04/11 10:05:56;;;;;;;683.07;636.57;;;;;;;;;;5011305;28;20464;-61
2022/04/11 10:08:26;;;;;;;661.03;615.20;;;;;;;;;;5011527;28;20417;-62
2022/04/11 10:10:52;;;;;;;648.13;603.07;;;;;;;;;;5010119;28;20426;-62
2022/04/11 10:13:18;;;;;;;598.53;554.63;;;;;;;;;;5011487;28;20409;-61
2022/04/11 10:15:51;;;;;;;611.87;567.30;;;;;;;;;;5008721;28;20967;-61
2022/04/11 10:18:21;;;;;;;590.80;547.00;;;;;;;;;;5009049;28;20448;-60
2022/04/11 10:20:50;;;;;;;546.97;504.23;;;;;;;;;;5011104;28;20506;-62
2022/04/11 10:23:27;;;;;;;611.33;565.60;;;;;;;;;;5011628;28;20787;-62
2022/04/11 10:25:54;;;;;;;667.33;618.87;;;;;;;;;;5011231;28;20974;-62
2022/04/11 10:28:22;;;;;;;704.57;656.70;;;;;;;;;;5011135;28;20781;-62
2022/04/11 10:31:07;;;;;;;692.83;644.57;;;;;;;;;;5010802;28;20406;-61
2022/04/11 10:33:44;;;;;;;685.97;637.87;;;;;;;;;;5011443;28;20488;-62
2022/04/11 10:36:28;;;;;;;731.93;684.67;;;;;;;;;;5009094;28;20445;-62
2022/04/11 10:39:13;;;;;;;735.80;687.07;;;;;;;;;;5011176;28;20440;-62
2022/04/11 10:41:57;;;;;;;718.83;670.17;;;;;;;;;;5010663;28;20776;-61
2022/04/11 10:44:33;;;;;;;718.60;669.23;;;;;;;;;;5011325;28;20416;-62
2022/04/11 10:47:08;;;;;;;709.30;659.50;;;;;;;;;;5011308;28;20962;-62
2022/04/11 10:49:58;;;;;;;732.93;683.37;;;;;;;;;;5010707;28;20435;-62
2022/04/11 10:52:33;;;;;;;666.63;618.93;;;;;;;;;;5008535;28;20420;-61
2022/04/11 10:55:05;;;;;;;633.33;586.43;;;;;;;;;;5014462;28;20418;-62
2022/04/11 10:57:39;;;;;;;653.40;606.00;;;;;;;;;;5014842;28;20767;-62
2022/04/11 11:00:09;;;;;;;686.00;639.80;;;;;;;;;;5014150;28;20413;-62
2022/04/11 11:02:50;;;;;;;698.77;650.40;;;;;;;;;;5014831;28;20455;-62
2022/04/11 11:05:22;;;;;;;716.60;666.60;;;;;;;;;;5014507;28;20750;-62
2022/04/11 11:07:48;;;;;;;740.27;689.70;;;;;;;;;;5014816;28;20451;-62
2022/04/11 11:10:27;;;;;;;757.57;706.70;;;;;;;;;;5013631;28;20477;-63
2022/04/11 11:12:53;;;;;;;741.87;691.73;;;;;;;;;;5014514;28;20412;-63
2022/04/11 11:15:25;;;;;;;732.27;682.00;;;;;;;;;;5012488;28;20897;-62
2022/04/11 11:17:58;;;;;;;745.47;693.97;;;;;;;;;;5012477;28;20419;-62
2022/04/11 11:20:24;;;;;;;745.20;695.20;;;;;;;;;;5012527;28;20424;-62
2022/04/11 11:23:09;;;;;;;740.50;690.53;;;;;;;;;;5014318;28;20478;-62
2022/04/11 11:25:35;;;;;;;720.63;670.43;;;;;;;;;;5012354;28;21000;-62
2022/04/11 11:28:01;;;;;;;714.87;665.40;;;;;;;;;;5012649;28;20421;-62
2022/04/11 11:30:28;;;;;;;722.23;671.53;;;;;;;;;;5010551;28;20414;-62
2022/04/11 11:33:00;;;;;;;737.70;687.53;;;;;;;;;;5013031;28;20414;-62
2022/04/11 11:35:26;;;;;;;738.90;688.00;;;;;;;;;;5012734;28;20430;-63
2022/04/11 11:37:56;;;;;;;760.80;708.67;;;;;;;;;;5013528;28;20530;-62
2022/04/11 11:40:22;;;;;;;771.40;719.63;;;;;;;;;;5013726;28;20922;-62
2022/04/11 11:42:49;;;;;;;759.80;708.67;;;;;;;;;;5012514;28;20751;-62
2022/04/11 11:45:26;;;;;;;769.33;717.00;;;;;;;;;;5013475;28;20793;-62
2022/04/11 11:47:52;;;;;;;783.10;732.63;;;;;;;;;;5013572;28;20416;-62
2022/04/11 11:50:18;;;;;;;767.73;717.83;;;;;;;;;;5012385;28;20403;-62
2022/04/11 11:52:56;;;;;;;718.20;668.87;;;;;;;;;;5012616;28;20442;-62
2022/04/11 11:55:22;;;;;;;725.67;675.20;;;;;;;;;;5011524;28;20497;-61
2022/04/11 11:58:02;;;;;;;721.20;670.20;;;;;;;;;;5012887;28;20452;-61
2022/04/11 12:00:33;;;;;;;661.77;611.60;;;;;;;;;;5014128;28;20908;-61
2022/04/11 12:05:44;;;;;;;614.53;565.53;;;;;;;;;;5013853;28;20467;-61
2022/04/11 12:08:13;;;;;;;613.93;565.37;;;;;;;;;;5014028;28;20413;-63
2022/04/11 12:10:40;;;;;;;593.93;545.97;;;;;;;;;;5009007;28;20454;-63
2022/04/11 12:13:06;;;;;;;562.97;515.63;;;;;;;;;;5005900;28;20414;-62
2022/04/11 12:15:33;;;;;;;542.57;494.80;;;;;;;;;;5000197;28;20516;-63
2022/04/11 12:18:09;;;;;;;537.27;490.20;;;;;;;;;;5003044;28;20900;-63
2022/04/11 12:20:36;;;;;;;523.13;476.13;;;;;;;;;;5001649;28;20983;-63
2022/04/11 12:23:06;;;;;;;492.90;447.23;;;;;;;;;;5010360;28;20408;-63
2022/04/11 12:25:33;;;;;;;474.57;429.10;;;;;;;;;;5003355;28;20429;-63
2022/04/11 12:28:09;;;;;;;442.50;400.10;;;;;;;;;;4998163;28;20420;-62
2022/04/11 12:30:35;;;;;;;422.70;379.23;;;;;;;;;;4993415;28;20409;-62
2022/04/11 12:33:01;;;;;;;418.93;376.47;;;;;;;;;;4998081;28;20438;-62
2022/04/11 12:35:27;;;;;;;413.53;370.10;;;;;;;;;;5012906;28;20448;-62
2022/04/11 12:37:56;;;;;;;399.60;358.23;;;;;;;;;;5013045;28;20408;-63
2022/04/11 12:40:40;;;;;;;418.60;376.40;;;;;;;;;;5012858;28;20458;-63
2022/04/11 12:43:06;;;;;;;392.23;351.17;;;;;;;;;;5013075;28;20416;-62
2022/04/11 12:45:34;;;;;;;379.07;338.27;;;;;;;;;;5011593;28;20441;-63
2022/04/11 12:48:03;;;;;;;359.10;320.90;;;;;;;;;;5013590;28;20500;-63
2022/04/11 12:50:30;;;;;;;353.13;308.27;;;;;;;;;;5013438;28;20408;-62
2022/04/11 12:52:56;;;;;;;354.17;303.63;;;;;;;;;;5012834;28;20550;-62
2022/04/11 12:55:26;;;;;;;344.07;305.43;;;;;;;;;;5012839;28;20428;-62
2022/04/11 12:58:08;;;;;;;352.35;305.33;;;;;;;;;;5012692;28;20419;-62
2022/04/11 13:00:36;;;;;;;341.90;282.15;;;;;;;;;;5012585;28;20180;-62
2022/04/11 13:03:02;;;;;;;349.17;295.10;;;;;;;;;;5012663;28;20220;-62
2022/04/11 13:05:28;;;;;;;353.93;303.67;;;;;;;;;;5012504;28;20428;-62
2022/04/11 13:07:54;;;;;;;346.60;292.37;;;;;;;;;;5012575;28;20409;-63
2022/04/11 13:10:24;;;;;;;354.40;306.63;;;;;;;;;;5010927;28;20935;-62
2022/04/11 13:12:50;;;;;;;358.67;301.13;;;;;;;;;;5012118;28;20412;-63
2022/04/11 13:15:17;;;;;;;354.43;297.63;;;;;;;;;;5012042;28;20408;-62
2022/04/11 13:20:28;;;;;;;345.92;292.80;;;;;;;;;;5010186;28;20415;-62
2022/04/11 13:22:54;;;;;;;339.10;286.93;;;;;;;;;;5011127;28;20228;-62
2022/04/11 13:25:20;;;;;;;355.37;303.73;;;;;;;;;;5012403;28;20586;-66
2022/04/11 13:27:47;;;;;;;342.45;275.65;;;;;;;;;;5010906;28;20425;-63
2022/04/11 13:30:13;;;;;;;350.93;290.53;;;;;;;;;;5010794;28;20225;-62
2022/04/11 13:32:39;;;;;;;326.07;283.33;;;;;;;;;;5010388;28;20424;-62
2022/04/11 13:35:08;;;;;;;355.27;296.27;;;;;;;;;;5009998;28;20495;-62
2022/04/11 13:37:34;;;;;;;357.17;293.40;;;;;;;;;;5010768;28;20783;-62
2022/04/11 13:40:00;;;;;;;351.03;292.53;;;;;;;;;;5010110;28;20496;-62
2022/04/11 13:42:26;;;;;;;352.57;291.37;;;;;;;;;;5010168;28;20467;-62
2022/04/11 13:44:52;;;;;;;356.43;284.33;;;;;;;;;;5011692;28;20416;-62
2022/04/11 13:47:18;;;;;;;350.43;273.87;;;;;;;;;;5010524;28;20476;-62
2022/04/11 13:49:44;;;;;;;348.83;273.70;;;;;;;;;;5010856;28;20455;-63
2022/04/11 13:52:10;;;;;;;361.02;283.60;;;;;;;;;;5010665;28;20427;-62
2022/04/11 13:54:36;;;;;;;334.95;267.92;;;;;;;;;;5011554;28;20264;-62
2022/04/11 13:57:02;;;;;;;326.10;250.33;;;;;;;;;;5011387;28;20284;-62
2022/04/11 13:59:28;;;;;;;350.88;279.77;;;;;;;;;;5011923;28;20838;-62
2022/04/11 14:01:55;;;;;;;354.40;287.07;;;;;;;;;;5011448;28;20375;-63
2022/04/11 14:04:23;;;;;;;351.73;283.50;;;;;;;;;;5011283;28;20405;-62